sensor_id;sensor_type;location;lat;lon;timestamp;pressure;altitude;pressure_sealevel;temperature;humidity
11223;BME280;5668;52.012;8.724;2023-08-08T00:01:38;99938.44;;;15.88;92.38
11223;BME280;5668;52.012;8.724;2023-08-08T00:04:08;99938.44;;;15.88;92.57
11223;BME280;5668;52.012;8.724;2023-08-08T00:06:37;99934.03;;;15.89;92.29
11223;BME280;5668;52.012;8.724;2023-08-08T00:09:04;99928.94;;;15.87;92.33
11223;BME280;5668;52.012;8.724;2023-08-08T00:11:32;99928.66;;;15.91;92.39
11223;BME280;5668;52.012;8.724;2023-08-08T00:14:00;99928.94;;;15.87;92.19
11223;BME280;5668;52.012;8.724;2023-08-08T00:16:27;99928.94;;;15.87;92.36
11223;BME280;5668;52.012;8.724;2023-08-08T00:18:54;99926.31;;;15.87;92.63
11223;BME280;5668;52.012;8.724;2023-08-08T00:21:21;99926.84;;;15.91;92.41
11223;BME280;5668;52.012;8.724;2023-08-08T00:23:50;99923.56;;;15.89;92.08
11223;BME280;5668;52.012;8.724;2023-08-08T00:26:17;99921.91;;;15.88;92.26
11223;BME280;5668;52.012;8.724;2023-08-08T00:28:44;99922.03;;;15.86;92.17
11223;BME280;5668;52.012;8.724;2023-08-08T00:31:11;99916.16;;;15.84;92.32
11223;BME280;5668;52.012;8.724;2023-08-08T00:33:39;99914.50;;;15.83;92.22
11223;BME280;5668;52.012;8.724;2023-08-08T00:36:06;99902.66;;;15.79;92.60
11223;BME280;5668;52.012;8.724;2023-08-08T00:38:33;99903.66;;;15.78;92.41
11223;BME280;5668;52.012;8.724;2023-08-08T00:41:01;99894.44;;;15.74;92.67
11223;BME280;5668;52.012;8.724;2023-08-08T00:43:30;99893.38;;;15.67;93.39
11223;BME280;5668;52.012;8.724;2023-08-08T00:45:58;99894.34;;;15.66;93.77
11223;BME280;5668;52.012;8.724;2023-08-08T00:48:25;99894.69;;;15.63;93.93
11223;BME280;5668;52.012;8.724;2023-08-08T00:50:53;99897.28;;;15.63;93.83
11223;BME280;5668;52.012;8.724;2023-08-08T00:53:20;99884.34;;;15.62;94.50
11223;BME280;5668;52.012;8.724;2023-08-08T00:55:48;99895.66;;;15.62;94.33
11223;BME280;5668;52.012;8.724;2023-08-08T00:58:18;99891.38;;;15.61;94.49
11223;BME280;5668;52.012;8.724;2023-08-08T01:00:45;99880.34;;;15.58;94.64
11223;BME280;5668;52.012;8.724;2023-08-08T01:03:12;99884.63;;;15.59;94.72
11223;BME280;5668;52.012;8.724;2023-08-08T01:05:43;99889.19;;;15.57;95.00
11223;BME280;5668;52.012;8.724;2023-08-08T01:08:16;99882.16;;;15.57;95.12
11223;BME280;5668;52.012;8.724;2023-08-08T01:10:46;99878.72;;;15.57;95.30
11223;BME280;5668;52.012;8.724;2023-08-08T01:13:17;99877.22;;;15.54;95.63
11223;BME280;5668;52.012;8.724;2023-08-08T01:15:47;99869.78;;;15.49;95.68
11223;BME280;5668;52.012;8.724;2023-08-08T01:18:16;99867.84;;;15.52;96.23
11223;BME280;5668;52.012;8.724;2023-08-08T01:20:44;99874.16;;;15.59;96.14
11223;BME280;5668;52.012;8.724;2023-08-08T01:23:16;99861.41;;;15.64;96.07
11223;BME280;5668;52.012;8.724;2023-08-08T01:25:46;99858.00;;;15.63;95.68
11223;BME280;5668;52.012;8.724;2023-08-08T01:28:15;99856.03;;;15.65;95.43
11223;BME280;5668;52.012;8.724;2023-08-08T01:30:44;99853.41;;;15.65;95.76
11223;BME280;5668;52.012;8.724;2023-08-08T01:33:11;99848.16;;;15.65;95.61
11223;BME280;5668;52.012;8.724;2023-08-08T01:35:39;99852.75;;;15.63;95.99
11223;BME280;5668;52.012;8.724;2023-08-08T01:38:12;99851.41;;;15.59;96.39
11223;BME280;5668;52.012;8.724;2023-08-08T01:40:44;99853.66;;;15.54;96.66
11223;BME280;5668;52.012;8.724;2023-08-08T01:43:13;99851.03;;;15.54;96.79
11223;BME280;5668;52.012;8.724;2023-08-08T01:45:42;99845.81;;;15.54;96.91
11223;BME280;5668;52.012;8.724;2023-08-08T01:48:10;99848.78;;;15.59;97.26
11223;BME280;5668;52.012;8.724;2023-08-08T01:50:38;99846.47;;;15.56;97.06
11223;BME280;5668;52.012;8.724;2023-08-08T01:53:05;99846.00;;;15.61;96.96
11223;BME280;5668;52.012;8.724;2023-08-08T01:55:32;99852.75;;;15.63;96.75
11223;BME280;5668;52.012;8.724;2023-08-08T01:58:01;99845.69;;;15.64;96.57
11223;BME280;5668;52.012;8.724;2023-08-08T02:00:28;99839.50;;;15.65;96.90
11223;BME280;5668;52.012;8.724;2023-08-08T02:02:55;99849.13;;;15.64;96.87
11223;BME280;5668;52.012;8.724;2023-08-08T02:05:22;99847.19;;;15.66;96.92
11223;BME280;5668;52.012;8.724;2023-08-08T02:07:49;99845.25;;;15.68;96.60
11223;BME280;5668;52.012;8.724;2023-08-08T02:10:17;99841.00;;;15.67;96.42
11223;BME280;5668;52.012;8.724;2023-08-08T02:12:45;99827.59;;;15.70;96.84
11223;BME280;5668;52.012;8.724;2023-08-08T02:15:14;99835.75;;;15.67;96.89
11223;BME280;5668;52.012;8.724;2023-08-08T02:17:41;99834.94;;;15.67;96.79
11223;BME280;5668;52.012;8.724;2023-08-08T02:20:10;99836.09;;;15.72;96.97
11223;BME280;5668;52.012;8.724;2023-08-08T02:22:38;99827.97;;;15.75;96.41
11223;BME280;5668;52.012;8.724;2023-08-08T02:25:06;99836.78;;;15.74;96.58
11223;BME280;5668;52.012;8.724;2023-08-08T02:27:33;99829.75;;;15.75;96.41
11223;BME280;5668;52.012;8.724;2023-08-08T02:30:00;99828.47;;;15.79;96.36
11223;BME280;5668;52.012;8.724;2023-08-08T02:32:29;99826.84;;;15.78;96.35
11223;BME280;5668;52.012;8.724;2023-08-08T02:34:56;99826.03;;;15.77;96.33
11223;BME280;5668;52.012;8.724;2023-08-08T02:37:23;99820.09;;;15.75;96.86
11223;BME280;5668;52.012;8.724;2023-08-08T02:39:50;99834.53;;;15.79;96.99
11223;BME280;5668;52.012;8.724;2023-08-08T02:42:18;99836.19;;;15.80;96.82
11223;BME280;5668;52.012;8.724;2023-08-08T02:44:45;99829.00;;;15.82;96.61
11223;BME280;5668;52.012;8.724;2023-08-08T02:47:12;99818.38;;;15.84;96.66
11223;BME280;5668;52.012;8.724;2023-08-08T02:49:40;99818.22;;;15.85;96.07
11223;BME280;5668;52.012;8.724;2023-08-08T02:52:08;99821.47;;;15.87;96.11
11223;BME280;5668;52.012;8.724;2023-08-08T02:54:35;99823.47;;;15.85;95.96
11223;BME280;5668;52.012;8.724;2023-08-08T02:57:02;99819.19;;;15.84;96.22
11223;BME280;5668;52.012;8.724;2023-08-08T02:59:30;99816.56;;;15.84;96.06
11223;BME280;5668;52.012;8.724;2023-08-08T03:01:57;99816.56;;;15.84;96.27
11223;BME280;5668;52.012;8.724;2023-08-08T03:04:24;99814.78;;;15.85;95.65
11223;BME280;5668;52.012;8.724;2023-08-08T03:06:53;99818.38;;;15.84;95.67
11223;BME280;5668;52.012;8.724;2023-08-08T03:09:20;99809.53;;;15.85;95.78
11223;BME280;5668;52.012;8.724;2023-08-08T03:11:47;99805.25;;;15.84;95.36
11223;BME280;5668;52.012;8.724;2023-08-08T03:14:15;99807.50;;;15.79;95.53
11223;BME280;5668;52.012;8.724;2023-08-08T03:16:42;99803.09;;;15.79;95.57
11223;BME280;5668;52.012;8.724;2023-08-08T03:19:09;99807.81;;;15.76;95.51
11223;BME280;5668;52.012;8.724;2023-08-08T03:21:37;99803.25;;;15.78;95.78
11223;BME280;5668;52.012;8.724;2023-08-08T03:24:06;99797.19;;;15.77;96.13
11223;BME280;5668;52.012;8.724;2023-08-08T03:26:33;99792.59;;;15.79;95.78
11223;BME280;5668;52.012;8.724;2023-08-08T03:29:00;99789.16;;;15.79;95.22
11223;BME280;5668;52.012;8.724;2023-08-08T03:31:27;99790.97;;;15.78;95.43
11223;BME280;5668;52.012;8.724;2023-08-08T03:33:55;99792.59;;;15.79;95.54
11223;BME280;5668;52.012;8.724;2023-08-08T03:36:22;99790.66;;;15.81;95.51
11223;BME280;5668;52.012;8.724;2023-08-08T03:38:50;99790.66;;;15.81;95.75
11223;BME280;5668;52.012;8.724;2023-08-08T03:41:18;99786.09;;;15.83;95.52
11223;BME280;5668;52.012;8.724;2023-08-08T03:43:46;99784.31;;;15.84;95.34
11223;BME280;5668;52.012;8.724;2023-08-08T03:46:13;99778.22;;;15.83;95.44
11223;BME280;5668;52.012;8.724;2023-08-08T03:48:40;99783.47;;;15.83;95.34
11223;BME280;5668;52.012;8.724;2023-08-08T03:51:07;99781.81;;;15.82;95.82
11223;BME280;5668;52.012;8.724;2023-08-08T03:53:35;99781.53;;;15.85;95.83
11223;BME280;5668;52.012;8.724;2023-08-08T03:56:02;99772.38;;;15.90;95.83
11223;BME280;5668;52.012;8.724;2023-08-08T03:58:30;99770.44;;;15.92;95.99
11223;BME280;5668;52.012;8.724;2023-08-08T04:00:58;99770.56;;;15.90;96.07
11223;BME280;5668;52.012;8.724;2023-08-08T04:03:25;99769.44;;;15.93;95.66
11223;BME280;5668;52.012;8.724;2023-08-08T04:05:52;99753.06;;;15.91;95.74
11223;BME280;5668;52.012;8.724;2023-08-08T04:08:19;99763.53;;;15.91;96.12
11223;BME280;5668;52.012;8.724;2023-08-08T04:10:47;99772.38;;;15.90;96.06
11223;BME280;5668;52.012;8.724;2023-08-08T04:13:14;99768.53;;;16.36;93.79
11223;BME280;5668;52.012;8.724;2023-08-08T04:15:43;99767.28;;;16.14;94.62
11223;BME280;5668;52.012;8.724;2023-08-08T04:18:11;99771.66;;;16.05;95.07
11223;BME280;5668;52.012;8.724;2023-08-08T04:20:38;99773.09;;;16.00;95.38
11223;BME280;5668;52.012;8.724;2023-08-08T04:23:05;99780.91;;;15.92;96.31
11223;BME280;5668;52.012;8.724;2023-08-08T04:25:32;99777.63;;;15.90;96.57
11223;BME280;5668;52.012;8.724;2023-08-08T04:28:00;99771.53;;;15.89;96.58
11223;BME280;5668;52.012;8.724;2023-08-08T04:30:27;99773.00;;;15.83;96.67
11223;BME280;5668;52.012;8.724;2023-08-08T04:32:55;99781.81;;;15.82;97.16
11223;BME280;5668;52.012;8.724;2023-08-08T04:35:23;99776.06;;;15.79;97.78
11223;BME280;5668;52.012;8.724;2023-08-08T04:37:50;99777.22;;;15.76;97.85
11223;BME280;5668;52.012;8.724;2023-08-08T04:40:18;99770.47;;;15.74;98.00
11223;BME280;5668;52.012;8.724;2023-08-08T04:42:46;99771.91;;;15.68;98.66
11223;BME280;5668;52.012;8.724;2023-08-08T04:45:13;99763.50;;;15.65;99.16
11223;BME280;5668;52.012;8.724;2023-08-08T04:47:40;99761.06;;;15.63;99.96
11223;BME280;5668;52.012;8.724;2023-08-08T04:50:11;99771.22;;;15.66;99.96
11223;BME280;5668;52.012;8.724;2023-08-08T04:52:39;99759.25;;;15.64;100.00
11223;BME280;5668;52.012;8.724;2023-08-08T04:55:06;99761.88;;;15.64;100.00
11223;BME280;5668;52.012;8.724;2023-08-08T04:57:34;99755.84;;;15.63;100.00
11223;BME280;5668;52.012;8.724;2023-08-08T05:00:01;99760.25;;;15.63;100.00
11223;BME280;5668;52.012;8.724;2023-08-08T05:02:31;99754.84;;;15.64;100.00
11223;BME280;5668;52.012;8.724;2023-08-08T05:04:59;99763.38;;;15.66;100.00
11223;BME280;5668;52.012;8.724;2023-08-08T05:07:28;99759.78;;;15.67;100.00
11223;BME280;5668;52.012;8.724;2023-08-08T05:09:55;99756.88;;;15.70;100.00
11223;BME280;5668;52.012;8.724;2023-08-08T05:12:22;99748.31;;;15.68;100.00
11223;BME280;5668;52.012;8.724;2023-08-08T05:14:49;99744.75;;;15.69;100.00
11223;BME280;5668;52.012;8.724;2023-08-08T05:17:17;99744.75;;;15.69;100.00
11223;BME280;5668;52.012;8.724;2023-08-08T05:19:44;99754.06;;;15.72;100.00
11223;BME280;5668;52.012;8.724;2023-08-08T05:22:11;99741.16;;;15.70;100.00
11223;BME280;5668;52.012;8.724;2023-08-08T05:24:40;99746.06;;;15.73;100.00
11223;BME280;5668;52.012;8.724;2023-08-08T05:27:07;99742.47;;;15.74;100.00
11223;BME280;5668;52.012;8.724;2023-08-08T05:29:35;99744.78;;;15.77;100.00
11223;BME280;5668;52.012;8.724;2023-08-08T05:32:04;99748.72;;;15.81;100.00
11223;BME280;5668;52.012;8.724;2023-08-08T05:34:32;99749.56;;;15.82;100.00
11223;BME280;5668;52.012;8.724;2023-08-08T05:37:00;99751.50;;;15.80;100.00
11223;BME280;5668;52.012;8.724;2023-08-08T05:39:27;99753.97;;;15.81;100.00
11223;BME280;5668;52.012;8.724;2023-08-08T05:41:55;99750.22;;;15.84;100.00
11223;BME280;5668;52.012;8.724;2023-08-08T05:44:23;99746.78;;;15.83;100.00
11223;BME280;5668;52.012;8.724;2023-08-08T05:46:50;99747.75;;;15.82;100.00
11223;BME280;5668;52.012;8.724;2023-08-08T05:49:17;99748.72;;;15.81;100.00
11223;BME280;5668;52.012;8.724;2023-08-08T05:51:44;99746.78;;;15.83;100.00
11223;BME280;5668;52.012;8.724;2023-08-08T05:54:11;99749.09;;;15.86;100.00
11223;BME280;5668;52.012;8.724;2023-08-08T05:56:39;99750.09;;;15.85;100.00
11223;BME280;5668;52.012;8.724;2023-08-08T05:59:07;99748.44;;;15.84;100.00
11223;BME280;5668;52.012;8.724;2023-08-08T06:01:34;99748.63;;;15.91;100.00
11223;BME280;5668;52.012;8.724;2023-08-08T06:04:01;99761.25;;;15.96;100.00
11223;BME280;5668;52.012;8.724;2023-08-08T06:06:29;99754.22;;;15.96;100.00
11223;BME280;5668;52.012;8.724;2023-08-08T06:08:56;99753.78;;;16.01;100.00
11223;BME280;5668;52.012;8.724;2023-08-08T06:11:24;99747.22;;;16.05;100.00
11223;BME280;5668;52.012;8.724;2023-08-08T06:13:51;99754.94;;;16.06;100.00
11223;BME280;5668;52.012;8.724;2023-08-08T06:16:19;99746.44;;;16.12;100.00
11223;BME280;5668;52.012;8.724;2023-08-08T06:18:47;99747.28;;;16.13;100.00
11223;BME280;5668;52.012;8.724;2023-08-08T06:21:14;99747.50;;;16.70;99.69
11223;BME280;5668;52.012;8.724;2023-08-08T06:23:41;99739.38;;;16.47;100.00
11223;BME280;5668;52.012;8.724;2023-08-08T06:26:08;99745.09;;;16.42;100.00
11223;BME280;5668;52.012;8.724;2023-08-08T06:28:36;99745.78;;;16.44;100.00
11223;BME280;5668;52.012;8.724;2023-08-08T06:31:04;99753.50;;;16.46;100.00
11223;BME280;5668;52.012;8.724;2023-08-08T06:33:32;99764.81;;;16.46;100.00
11223;BME280;5668;52.012;8.724;2023-08-08T06:35:59;99755.63;;;16.50;100.00
11223;BME280;5668;52.012;8.724;2023-08-08T06:38:27;99754.31;;;16.54;100.00
11223;BME280;5668;52.012;8.724;2023-08-08T06:40:54;99753.19;;;16.57;100.00
11223;BME280;5668;52.012;8.724;2023-08-08T06:43:22;99757.97;;;16.61;99.95
11223;BME280;5668;52.012;8.724;2023-08-08T06:45:49;99761.72;;;16.59;100.00
11223;BME280;5668;52.012;8.724;2023-08-08T06:48:16;99766.00;;;16.60;100.00
11223;BME280;5668;52.012;8.724;2023-08-08T06:50:44;99765.84;;;16.61;100.00
11223;BME280;5668;52.012;8.724;2023-08-08T06:53:12;99765.69;;;16.63;100.00
11223;BME280;5668;52.012;8.724;2023-08-08T06:55:39;99767.19;;;16.66;100.00
11223;BME280;5668;52.012;8.724;2023-08-08T06:58:06;99769.66;;;16.67;100.00
11223;BME280;5668;52.012;8.724;2023-08-08T07:00:33;99759.66;;;16.71;100.00
11223;BME280;5668;52.012;8.724;2023-08-08T07:03:00;99756.19;;;16.70;100.00
11223;BME280;5668;52.012;8.724;2023-08-08T07:05:28;99754.56;;;16.69;100.00
11223;BME280;5668;52.012;8.724;2023-08-08T07:07:57;99757.19;;;16.69;100.00
11223;BME280;5668;52.012;8.724;2023-08-08T07:10:24;99759.00;;;16.69;100.00
11223;BME280;5668;52.012;8.724;2023-08-08T07:12:52;99756.06;;;16.72;100.00
11223;BME280;5668;52.012;8.724;2023-08-08T07:15:20;99762.28;;;16.71;100.00
11223;BME280;5668;52.012;8.724;2023-08-08T07:17:47;99756.19;;;16.70;100.00
11223;BME280;5668;52.012;8.724;2023-08-08T07:20:16;99749.81;;;16.73;99.92
11223;BME280;5668;52.012;8.724;2023-08-08T07:22:44;99753.13;;;16.75;99.95
11223;BME280;5668;52.012;8.724;2023-08-08T07:25:12;99758.22;;;16.76;99.65
11223;BME280;5668;52.012;8.724;2023-08-08T07:27:39;99758.69;;;16.80;99.93
11223;BME280;5668;52.012;8.724;2023-08-08T07:30:07;99748.88;;;16.82;99.99
11223;BME280;5668;52.012;8.724;2023-08-08T07:32:35;99733.94;;;16.82;99.62
11223;BME280;5668;52.012;8.724;2023-08-08T07:35:03;99736.06;;;16.87;99.86
11223;BME280;5668;52.012;8.724;2023-08-08T07:37:31;99740.19;;;16.89;99.63
11223;BME280;5668;52.012;8.724;2023-08-08T07:40:02;99735.75;;;16.90;99.72
11223;BME280;5668;52.012;8.724;2023-08-08T07:42:32;99731.34;;;16.90;99.35
11223;BME280;5668;52.012;8.724;2023-08-08T07:44:59;99743.47;;;16.91;99.37
11223;BME280;5668;52.012;8.724;2023-08-08T07:47:26;99752.34;;;16.90;99.54
11223;BME280;5668;52.012;8.724;2023-08-08T07:49:53;99744.28;;;16.92;99.03
11223;BME280;5668;52.012;8.724;2023-08-08T07:52:21;99742.31;;;16.94;99.02
11223;BME280;5668;52.012;8.724;2023-08-08T07:54:49;99738.56;;;16.96;99.18
11223;BME280;5668;52.012;8.724;2023-08-08T07:57:16;99741.66;;;17.00;98.99
11223;BME280;5668;52.012;8.724;2023-08-08T07:59:45;99746.91;;;17.00;99.14
11223;BME280;5668;52.012;8.724;2023-08-08T08:02:12;99740.53;;;17.02;99.08
11223;BME280;5668;52.012;8.724;2023-08-08T08:04:39;99742.31;;;17.02;99.26
11223;BME280;5668;52.012;8.724;2023-08-08T08:07:06;99736.91;;;17.03;99.16
11223;BME280;5668;52.012;8.724;2023-08-08T08:09:34;99729.53;;;17.07;98.73
11223;BME280;5668;52.012;8.724;2023-08-08T08:12:01;99734.63;;;17.09;98.83
11223;BME280;5668;52.012;8.724;2023-08-08T08:14:28;99732.34;;;17.14;98.81
11223;BME280;5668;52.012;8.724;2023-08-08T08:16:57;99733.34;;;17.21;99.66
11223;BME280;5668;52.012;8.724;2023-08-08T08:19:24;99724.94;;;17.25;99.34
11223;BME280;5668;52.012;8.724;2023-08-08T08:21:51;99723.31;;;17.24;98.51
11223;BME280;5668;52.012;8.724;2023-08-08T08:24:18;99717.72;;;17.19;97.85
11223;BME280;5668;52.012;8.724;2023-08-08T08:26:46;99726.28;;;17.21;97.72
11223;BME280;5668;52.012;8.724;2023-08-08T08:29:13;99724.94;;;17.25;97.34
11223;BME280;5668;52.012;8.724;2023-08-08T08:31:40;99721.19;;;17.28;97.86
11223;BME280;5668;52.012;8.724;2023-08-08T08:34:09;99728.09;;;17.29;97.82
11223;BME280;5668;52.012;8.724;2023-08-08T08:36:36;99727.06;;;17.30;97.74
11223;BME280;5668;52.012;8.724;2023-08-08T08:39:03;99719.53;;;17.27;97.39
11223;BME280;5668;52.012;8.724;2023-08-08T08:41:32;99718.38;;;17.29;97.47
11223;BME280;5668;52.012;8.724;2023-08-08T08:44:02;99717.22;;;17.32;96.84
11223;BME280;5668;52.012;8.724;2023-08-08T08:46:30;99710.69;;;17.36;96.87
11223;BME280;5668;52.012;8.724;2023-08-08T08:48:59;99710.47;;;17.37;96.48
11223;BME280;5668;52.012;8.724;2023-08-08T08:51:28;99713.78;;;17.39;96.60
11223;BME280;5668;52.012;8.724;2023-08-08T08:53:56;99711.66;;;17.43;96.39
11223;BME280;5668;52.012;8.724;2023-08-08T08:56:25;99704.75;;;17.50;96.36
11223;BME280;5668;52.012;8.724;2023-08-08T08:58:52;99710.63;;;17.52;95.17
11223;BME280;5668;52.012;8.724;2023-08-08T09:01:19;99710.31;;;17.55;94.62
11223;BME280;5668;52.012;8.724;2023-08-08T09:03:48;99715.06;;;17.60;94.10
11223;BME280;5668;52.012;8.724;2023-08-08T09:06:16;99720.19;;;17.61;93.35
11223;BME280;5668;52.012;8.724;2023-08-08T09:08:46;99722.47;;;17.56;92.71
11223;BME280;5668;52.012;8.724;2023-08-08T09:11:14;99722.47;;;17.56;92.50
11223;BME280;5668;52.012;8.724;2023-08-08T09:13:41;99723.59;;;17.54;92.53
11223;BME280;5668;52.012;8.724;2023-08-08T09:16:08;99721.34;;;17.51;92.86
11223;BME280;5668;52.012;8.724;2023-08-08T09:18:38;99733.00;;;17.40;93.27
11223;BME280;5668;52.012;8.724;2023-08-08T09:21:05;99728.25;;;17.35;92.97
11223;BME280;5668;52.012;8.724;2023-08-08T09:23:32;99730.88;;;17.35;92.76
11223;BME280;5668;52.012;8.724;2023-08-08T09:26:01;99723.16;;;17.34;92.84
11223;BME280;5668;52.012;8.724;2023-08-08T09:28:28;99717.06;;;17.33;93.27
11223;BME280;5668;52.012;8.724;2023-08-08T09:30:55;99720.69;;;17.32;94.31
11223;BME280;5668;52.012;8.724;2023-08-08T09:33:22;99722.31;;;17.33;94.55
11223;BME280;5668;52.012;8.724;2023-08-08T09:35:52;99726.59;;;17.42;95.25
11223;BME280;5668;52.012;8.724;2023-08-08T09:38:20;99720.31;;;17.52;94.92
11223;BME280;5668;52.012;8.724;2023-08-08T09:40:48;99719.34;;;17.53;94.78
11223;BME280;5668;52.012;8.724;2023-08-08T09:43:17;99711.13;;;17.56;94.02
11223;BME280;5668;52.012;8.724;2023-08-08T09:45:45;99697.69;;;17.59;93.89
11223;BME280;5668;52.012;8.724;2023-08-08T09:48:14;99704.56;;;17.68;94.09
11223;BME280;5668;52.012;8.724;2023-08-08T09:50:43;99708.50;;;17.72;92.86
11223;BME280;5668;52.012;8.724;2023-08-08T09:53:12;99706.84;;;17.79;92.79
11223;BME280;5668;52.012;8.724;2023-08-08T09:55:39;99705.66;;;17.90;93.30
11223;BME280;5668;52.012;8.724;2023-08-08T09:58:07;99702.50;;;18.02;93.51
11223;BME280;5668;52.012;8.724;2023-08-08T10:00:36;99702.47;;;18.10;92.13
11223;BME280;5668;52.012;8.724;2023-08-08T10:03:04;99693.53;;;18.19;92.24
11223;BME280;5668;52.012;8.724;2023-08-08T10:05:32;99697.94;;;18.27;91.07
11223;BME280;5668;52.012;8.724;2023-08-08T10:07:59;99704.41;;;18.25;89.33
11223;BME280;5668;52.012;8.724;2023-08-08T10:10:27;99703.03;;;18.29;88.03
11223;BME280;5668;52.012;8.724;2023-08-08T10:12:55;99723.78;;;18.24;86.63
11223;BME280;5668;52.012;8.724;2023-08-08T10:15:26;99706.69;;;18.19;86.94
11223;BME280;5668;52.012;8.724;2023-08-08T10:17:56;99711.66;;;18.14;86.60
11223;BME280;5668;52.012;8.724;2023-08-08T10:20:24;99704.59;;;18.15;86.93
11223;BME280;5668;52.012;8.724;2023-08-08T10:22:53;99708.38;;;18.12;85.24
11223;BME280;5668;52.012;8.724;2023-08-08T10:25:25;99717.41;;;18.18;85.71
11223;BME280;5668;52.012;8.724;2023-08-08T10:28:03;99714.56;;;18.28;85.91
11223;BME280;5668;52.012;8.724;2023-08-08T10:30:41;99705.63;;;18.37;86.56
11223;BME280;5668;52.012;8.724;2023-08-08T10:33:16;99710.41;;;18.41;85.56
11223;BME280;5668;52.012;8.724;2023-08-08T10:35:56;99714.47;;;18.44;82.89
11223;BME280;5668;52.012;8.724;2023-08-08T10:38:24;99727.19;;;18.40;82.10
11223;BME280;5668;52.012;8.724;2023-08-08T10:40:56;99728.47;;;18.44;82.59
11223;BME280;5668;52.012;8.724;2023-08-08T10:43:28;99727.31;;;18.47;81.96
11223;BME280;5668;52.012;8.724;2023-08-08T10:45:57;99725.63;;;18.54;81.68
11223;BME280;5668;52.012;8.724;2023-08-08T10:48:27;99717.41;;;18.57;81.38
11223;BME280;5668;52.012;8.724;2023-08-08T10:50:55;99722.63;;;18.65;82.15
11223;BME280;5668;52.012;8.724;2023-08-08T10:53:26;99712.88;;;18.74;81.86
11223;BME280;5668;52.012;8.724;2023-08-08T10:56:01;99710.84;;;18.84;80.19
11223;BME280;5668;52.012;8.724;2023-08-08T10:58:38;99706.84;;;18.88;78.49
11223;BME280;5668;52.012;8.724;2023-08-08T11:01:07;99699.06;;;18.94;77.92
11223;BME280;5668;52.012;8.724;2023-08-08T11:03:37;99702.00;;;19.00;76.97
11223;BME280;5668;52.012;8.724;2023-08-08T11:06:06;99699.66;;;19.05;76.06
11223;BME280;5668;52.012;8.724;2023-08-08T11:08:34;99695.19;;;19.05;75.13
11223;BME280;5668;52.012;8.724;2023-08-08T11:11:02;99704.91;;;19.05;75.19
11223;BME280;5668;52.012;8.724;2023-08-08T11:13:30;99707.28;;;19.00;74.67
11223;BME280;5668;52.012;8.724;2023-08-08T11:15:57;99705.97;;;18.95;74.03
11223;BME280;5668;52.012;8.724;2023-08-08T11:18:24;99713.03;;;18.95;72.59
11223;BME280;5668;52.012;8.724;2023-08-08T11:20:55;99707.56;;;19.42;70.58
11223;BME280;5668;52.012;8.724;2023-08-08T11:23:22;99707.50;;;19.13;70.59
11223;BME280;5668;52.012;8.724;2023-08-08T11:25:49;99704.47;;;19.01;71.59
11223;BME280;5668;52.012;8.724;2023-08-08T11:28:17;99707.56;;;19.05;72.33
11223;BME280;5668;52.012;8.724;2023-08-08T11:30:45;99699.66;;;19.05;72.92
11223;BME280;5668;52.012;8.724;2023-08-08T11:33:14;99701.63;;;19.03;73.42
11223;BME280;5668;52.012;8.724;2023-08-08T11:35:45;99697.66;;;19.07;73.68
11223;BME280;5668;52.012;8.724;2023-08-08T11:38:16;99696.94;;;19.13;73.97
11223;BME280;5668;52.012;8.724;2023-08-08T11:40:44;99695.78;;;19.15;73.91
11223;BME280;5668;52.012;8.724;2023-08-08T11:43:12;99700.88;;;19.17;74.26
11223;BME280;5668;52.012;8.724;2023-08-08T11:45:40;99704.31;;;19.17;73.64
11223;BME280;5668;52.012;8.724;2023-08-08T11:48:09;99698.69;;;19.20;73.42
11223;BME280;5668;52.012;8.724;2023-08-08T11:50:37;99686.53;;;19.19;71.65
11223;BME280;5668;52.012;8.724;2023-08-08T11:53:07;99693.88;;;19.09;70.14
11223;BME280;5668;52.012;8.724;2023-08-08T11:55:36;99688.78;;;19.08;69.75
11223;BME280;5668;52.012;8.724;2023-08-08T11:58:04;99691.09;;;19.03;69.85
11223;BME280;5668;52.012;8.724;2023-08-08T12:00:32;99689.47;;;19.02;70.13
11223;BME280;5668;52.012;8.724;2023-08-08T12:03:01;99696.38;;;19.03;69.66
11223;BME280;5668;52.012;8.724;2023-08-08T12:05:30;99697.19;;;19.03;69.09
11223;BME280;5668;52.012;8.724;2023-08-08T12:08:05;99699.00;;;19.03;69.84
11223;BME280;5668;52.012;8.724;2023-08-08T12:10:32;99694.38;;;19.05;70.40
11223;BME280;5668;52.012;8.724;2023-08-08T12:13:01;99701.69;;;18.94;67.84
11223;BME280;5668;52.012;8.724;2023-08-08T12:15:29;99704.69;;;18.91;67.05
11223;BME280;5668;52.012;8.724;2023-08-08T12:17:58;99701.78;;;18.86;68.34
11223;BME280;5668;52.012;8.724;2023-08-08T12:20:27;99694.88;;;18.85;68.64
11223;BME280;5668;52.012;8.724;2023-08-08T12:22:55;99695.22;;;18.82;69.16
11223;BME280;5668;52.012;8.724;2023-08-08T12:25:23;99689.78;;;18.84;69.09
11223;BME280;5668;52.012;8.724;2023-08-08T12:27:50;99690.22;;;18.87;69.92
11223;BME280;5668;52.012;8.724;2023-08-08T12:30:19;99690.88;;;18.89;69.12
11223;BME280;5668;52.012;8.724;2023-08-08T12:32:46;99686.78;;;18.87;68.83
11223;BME280;5668;52.012;8.724;2023-08-08T12:35:13;99690.16;;;18.95;69.51
11223;BME280;5668;52.012;8.724;2023-08-08T12:37:42;99689.13;;;19.05;69.67
11223;BME280;5668;52.012;8.724;2023-08-08T12:40:11;99678.06;;;19.09;69.06
11223;BME280;5668;52.012;8.724;2023-08-08T12:42:38;99680.44;;;19.19;69.10
11223;BME280;5668;52.012;8.724;2023-08-08T12:45:06;99676.09;;;19.26;68.71
11223;BME280;5668;52.012;8.724;2023-08-08T12:47:35;99671.72;;;19.33;68.55
11223;BME280;5668;52.012;8.724;2023-08-08T12:50:04;99664.47;;;19.35;68.30
11223;BME280;5668;52.012;8.724;2023-08-08T12:52:32;99665.13;;;19.37;67.15
11223;BME280;5668;52.012;8.724;2023-08-08T12:54:59;99666.38;;;19.41;66.45
11223;BME280;5668;52.012;8.724;2023-08-08T12:57:27;99666.69;;;19.46;66.34
11223;BME280;5668;52.012;8.724;2023-08-08T12:59:54;99677.81;;;19.56;67.47
11223;BME280;5668;52.012;8.724;2023-08-08T13:02:21;99667.81;;;19.66;66.92
11223;BME280;5668;52.012;8.724;2023-08-08T13:04:50;99664.72;;;19.78;65.59
11223;BME280;5668;52.012;8.724;2023-08-08T13:07:17;99673.09;;;19.81;64.72
11223;BME280;5668;52.012;8.724;2023-08-08T13:09:44;99679.00;;;19.83;63.09
11223;BME280;5668;52.012;8.724;2023-08-08T13:12:12;99668.72;;;19.88;65.06
11223;BME280;5668;52.012;8.724;2023-08-08T13:14:39;99676.47;;;19.90;64.68